sensor_id;sensor_type;location;lat;lon;timestamp;pressure;altitude;pressure_sealevel;temperature;humidity
27334;BME280;14817;57.104;-2.094;2023-05-08T00:00:09;102269.81;;;7.97;100.00
27334;BME280;14817;57.104;-2.094;2023-05-08T00:02:39;102276.81;;;8.00;100.00
27334;BME280;14817;57.104;-2.094;2023-05-08T00:05:06;102281.38;;;7.98;100.00
27334;BME280;14817;57.104;-2.094;2023-05-08T00:07:35;102276.03;;;7.98;100.00
27334;BME280;14817;57.104;-2.094;2023-05-08T00:10:07;102276.91;;;7.98;100.00
27334;BME280;14817;57.104;-2.094;2023-05-08T00:12:34;102272.50;;;7.97;100.00
27334;BME280;14817;57.104;-2.094;2023-05-08T00:15:03;102273.25;;;8.00;100.00
27334;BME280;14817;57.104;-2.094;2023-05-08T00:17:30;102284.91;;;7.98;100.00
27334;BME280;14817;57.104;-2.094;2023-05-08T00:19:57;102278.03;;;7.94;100.00
27334;BME280;14817;57.104;-2.094;2023-05-08T00:22:24;102271.72;;;7.95;100.00
27334;BME280;14817;57.104;-2.094;2023-05-08T00:24:51;102277.94;;;7.96;100.00
27334;BME280;14817;57.104;-2.094;2023-05-08T00:27:17;102271.84;;;7.94;100.00
27334;BME280;14817;57.104;-2.094;2023-05-08T00:29:45;102264.00;;;7.91;100.00
27334;BME280;14817;57.104;-2.094;2023-05-08T00:32:11;102265.91;;;7.89;100.00
27334;BME280;14817;57.104;-2.094;2023-05-08T00:34:38;102273.81;;;7.90;100.00
27334;BME280;14817;57.104;-2.094;2023-05-08T00:37:05;102259.53;;;7.91;100.00
27334;BME280;14817;57.104;-2.094;2023-05-08T00:39:32;102260.50;;;7.90;100.00
27334;BME280;14817;57.104;-2.094;2023-05-08T00:41:59;102257.91;;;7.89;100.00
27334;BME280;14817;57.104;-2.094;2023-05-08T00:44:26;102256.28;;;7.86;100.00
27334;BME280;14817;57.104;-2.094;2023-05-08T00:46:54;102258.03;;;7.87;100.00
27334;BME280;14817;57.104;-2.094;2023-05-08T00:49:21;102246.47;;;7.87;100.00
27334;BME280;14817;57.104;-2.094;2023-05-08T00:51:50;102239.44;;;7.86;100.00
27334;BME280;14817;57.104;-2.094;2023-05-08T00:54:18;102237.69;;;7.85;100.00
27334;BME280;14817;57.104;-2.094;2023-05-08T00:56:45;102242.00;;;7.87;100.00
27334;BME280;14817;57.104;-2.094;2023-05-08T00:59:13;102089.00;;;7.88;100.00
27334;BME280;14817;57.104;-2.094;2023-05-08T01:01:42;102139.88;;;7.85;100.00
27334;BME280;14817;57.104;-2.094;2023-05-08T01:04:09;102148.53;;;7.89;100.00
27334;BME280;14817;57.104;-2.094;2023-05-08T01:06:36;102146.16;;;7.84;100.00
27334;BME280;14817;57.104;-2.094;2023-05-08T01:09:03;102154.94;;;7.86;100.00
27334;BME280;14817;57.104;-2.094;2023-05-08T01:11:54;102151.31;;;7.87;100.00
27334;BME280;14817;57.104;-2.094;2023-05-08T01:20:59;102159.13;;;7.90;100.00
27334;BME280;14817;57.104;-2.094;2023-05-08T01:34:22;102170.94;;;7.86;100.00
27334;BME280;14817;57.104;-2.094;2023-05-08T01:37:13;102174.72;;;7.82;100.00
27334;BME280;14817;57.104;-2.094;2023-05-08T01:39:49;102167.50;;;7.84;100.00
27334;BME280;14817;57.104;-2.094;2023-05-08T01:45:09;102169.22;;;7.85;100.00
27334;BME280;14817;57.104;-2.094;2023-05-08T01:47:38;102170.09;;;7.86;100.00
27334;BME280;14817;57.104;-2.094;2023-05-08T01:50:19;102169.13;;;7.87;100.00
27334;BME280;14817;57.104;-2.094;2023-05-08T01:52:53;102156.81;;;7.84;100.00
27334;BME280;14817;57.104;-2.094;2023-05-08T01:55:26;102154.94;;;7.86;100.00
27334;BME280;14817;57.104;-2.094;2023-05-08T01:57:57;102159.50;;;7.84;100.00
27334;BME280;14817;57.104;-2.094;2023-05-08T02:00:25;102160.47;;;7.83;100.00
27334;BME280;14817;57.104;-2.094;2023-05-08T02:02:55;102151.31;;;7.87;100.00
27334;BME280;14817;57.104;-2.094;2023-05-08T02:05:23;102154.72;;;7.89;100.00
27334;BME280;14817;57.104;-2.094;2023-05-08T02:07:54;102139.69;;;7.88;100.00
27334;BME280;14817;57.104;-2.094;2023-05-08T02:10:24;102153.78;;;7.90;100.00
27334;BME280;14817;57.104;-2.094;2023-05-08T02:12:52;102151.13;;;7.90;100.00
27334;BME280;14817;57.104;-2.094;2023-05-08T02:15:20;102143.41;;;7.86;100.00
27334;BME280;14817;57.104;-2.094;2023-05-08T02:17:49;102134.72;;;7.82;100.00
27334;BME280;14817;57.104;-2.094;2023-05-08T02:20:19;102137.09;;;7.87;100.00
27334;BME280;14817;57.104;-2.094;2023-05-08T02:22:49;102142.56;;;7.85;100.00
27334;BME280;14817;57.104;-2.094;2023-05-08T02:25:17;102135.41;;;7.86;100.00
27334;BME280;14817;57.104;-2.094;2023-05-08T02:27:46;102131.69;;;7.88;100.00
27334;BME280;14817;57.104;-2.094;2023-05-08T02:30:15;102138.06;;;7.86;100.00
27334;BME280;14817;57.104;-2.094;2023-05-08T02:32:43;102130.84;;;7.88;100.00
27334;BME280;14817;57.104;-2.094;2023-05-08T02:35:12;102115.00;;;7.85;100.00
27334;BME280;14817;57.104;-2.094;2023-05-08T02:38:07;102103.09;;;7.90;100.00
27334;BME280;14817;57.104;-2.094;2023-05-08T02:40:44;102102.25;;;7.90;100.00
27334;BME280;14817;57.104;-2.094;2023-05-08T02:43:11;102104.81;;;7.91;100.00
27334;BME280;14817;57.104;-2.094;2023-05-08T02:45:44;102105.22;;;7.85;100.00
27334;BME280;14817;57.104;-2.094;2023-05-08T02:48:23;102098.81;;;7.88;100.00
27334;BME280;14817;57.104;-2.094;2023-05-08T02:51:25;102093.50;;;7.88;100.00
27334;BME280;14817;57.104;-2.094;2023-05-08T02:54:00;102106.16;;;7.84;100.00
27334;BME280;14817;57.104;-2.094;2023-05-08T02:56:35;102094.63;;;7.84;100.00
27334;BME280;14817;57.104;-2.094;2023-05-08T02:59:15;102095.47;;;7.84;100.00
27334;BME280;14817;57.104;-2.094;2023-05-08T03:01:49;102090.91;;;7.86;100.00
27334;BME280;14817;57.104;-2.094;2023-05-08T03:04:44;102088.25;;;7.86;100.00
27334;BME280;14817;57.104;-2.094;2023-05-08T03:07:13;102091.66;;;7.88;100.00
27334;BME280;14817;57.104;-2.094;2023-05-08T03:09:46;102088.03;;;7.89;100.00
27334;BME280;14817;57.104;-2.094;2023-05-08T03:12:19;102082.53;;;7.92;100.00
27334;BME280;14817;57.104;-2.094;2023-05-08T03:15:06;102086.13;;;7.91;100.00
27334;BME280;14817;57.104;-2.094;2023-05-08T03:17:38;102087.09;;;7.90;100.00
27334;BME280;14817;57.104;-2.094;2023-05-08T03:20:08;102084.34;;;7.92;100.00
27334;BME280;14817;57.104;-2.094;2023-05-08T03:22:41;102084.34;;;7.92;100.00
27334;BME280;14817;57.104;-2.094;2023-05-08T03:25:10;102070.88;;;7.93;100.00
27334;BME280;14817;57.104;-2.094;2023-05-08T03:27:40;102062.13;;;7.91;100.00
27334;BME280;14817;57.104;-2.094;2023-05-08T03:30:09;102063.00;;;7.92;100.00
27334;BME280;14817;57.104;-2.094;2023-05-08T03:32:41;102056.91;;;7.90;100.00
27334;BME280;14817;57.104;-2.094;2023-05-08T03:35:10;102052.34;;;7.92;100.00
27334;BME280;14817;57.104;-2.094;2023-05-08T03:37:37;102060.34;;;7.92;100.00
27334;BME280;14817;57.104;-2.094;2023-05-08T03:40:05;102052.22;;;7.93;100.00
27334;BME280;14817;57.104;-2.094;2023-05-08T03:42:33;102054.13;;;7.91;100.00
27334;BME280;14817;57.104;-2.094;2023-05-08T03:45:01;102054.25;;;7.90;100.00
27334;BME280;14817;57.104;-2.094;2023-05-08T03:47:29;102058.31;;;7.95;100.00
27334;BME280;14817;57.104;-2.094;2023-05-08T03:49:57;102060.88;;;7.97;100.00
27334;BME280;14817;57.104;-2.094;2023-05-08T03:52:26;102065.28;;;7.98;100.00
27334;BME280;14817;57.104;-2.094;2023-05-08T03:54:53;102060.59;;;8.02;100.00
27334;BME280;14817;57.104;-2.094;2023-05-08T03:57:20;102052.78;;;7.98;100.00
27334;BME280;14817;57.104;-2.094;2023-05-08T04:00:05;102046.69;;;7.96;100.00
27334;BME280;14817;57.104;-2.094;2023-05-08T04:03:21;102052.59;;;8.02;100.00
27334;BME280;14817;57.104;-2.094;2023-05-08T04:05:59;102040.59;;;7.94;100.00
27334;BME280;14817;57.104;-2.094;2023-05-08T04:08:33;102025.66;;;7.92;100.00
27334;BME280;14817;57.104;-2.094;2023-05-08T04:11:22;102026.22;;;7.97;100.00
27334;BME280;14817;57.104;-2.094;2023-05-08T04:13:55;102033.38;;;7.96;100.00
27334;BME280;14817;57.104;-2.094;2023-05-08T04:16:26;102035.28;;;7.94;100.00
27334;BME280;14817;57.104;-2.094;2023-05-08T04:19:00;102030.03;;;7.93;100.00
27334;BME280;14817;57.104;-2.094;2023-05-08T04:21:32;102037.19;;;7.92;100.00
27334;BME280;14817;57.104;-2.094;2023-05-08T04:24:02;102026.41;;;7.94;100.00
27334;BME280;14817;57.104;-2.094;2023-05-08T04:26:30;102041.06;;;8.01;100.00
27334;BME280;14817;57.104;-2.094;2023-05-08T04:28:59;102041.91;;;8.02;100.00
27334;BME280;14817;57.104;-2.094;2023-05-08T04:31:26;102045.91;;;8.09;100.00
27334;BME280;14817;57.104;-2.094;2023-05-08T04:33:55;102044.19;;;8.08;100.00
27334;BME280;14817;57.104;-2.094;2023-05-08T04:36:23;102042.50;;;8.07;100.00
27334;BME280;14817;57.104;-2.094;2023-05-08T04:38:50;102039.25;;;8.02;100.00
27334;BME280;14817;57.104;-2.094;2023-05-08T04:41:18;102048.00;;;8.04;100.00
27334;BME280;14817;57.104;-2.094;2023-05-08T04:43:45;102034.28;;;8.10;100.00
27334;BME280;14817;57.104;-2.094;2023-05-08T04:46:12;102040.28;;;8.13;100.00
27334;BME280;14817;57.104;-2.094;2023-05-08T04:48:39;102035.78;;;8.14;100.00
27334;BME280;14817;57.104;-2.094;2023-05-08T04:51:05;102039.13;;;8.17;100.00
27334;BME280;14817;57.104;-2.094;2023-05-08T04:53:33;102025.66;;;8.19;100.00
27334;BME280;14817;57.104;-2.094;2023-05-08T04:56:00;102020.25;;;8.21;100.00
27334;BME280;14817;57.104;-2.094;2023-05-08T04:58:29;102027.31;;;8.22;100.00
27334;BME280;14817;57.104;-2.094;2023-05-08T05:01:01;102022.81;;;8.22;100.00
27334;BME280;14817;57.104;-2.094;2023-05-08T05:03:27;102033.28;;;8.25;100.00
27334;BME280;14817;57.104;-2.094;2023-05-08T05:05:58;102040.34;;;8.26;100.00
27334;BME280;14817;57.104;-2.094;2023-05-08T05:08:26;102041.84;;;8.30;100.00
27334;BME280;14817;57.104;-2.094;2023-05-08T05:10:54;102049.00;;;8.30;100.00
27334;BME280;14817;57.104;-2.094;2023-05-08T05:13:21;102049.97;;;8.29;100.00
27334;BME280;14817;57.104;-2.094;2023-05-08T05:15:48;102059.56;;;8.31;100.00
27334;BME280;14817;57.104;-2.094;2023-05-08T05:18:17;102066.72;;;8.31;100.00
27334;BME280;14817;57.104;-2.094;2023-05-08T05:20:44;102063.69;;;8.23;100.00
27334;BME280;14817;57.104;-2.094;2023-05-08T05:23:12;102058.19;;;8.26;100.00
27334;BME280;14817;57.104;-2.094;2023-05-08T05:25:38;102057.00;;;8.30;100.00
27334;BME280;14817;57.104;-2.094;2023-05-08T05:28:05;102057.00;;;8.30;100.00
27334;BME280;14817;57.104;-2.094;2023-05-08T05:30:32;102063.97;;;8.32;100.00
27334;BME280;14817;57.104;-2.094;2023-05-08T05:32:59;102069.00;;;8.37;100.00
27334;BME280;14817;57.104;-2.094;2023-05-08T05:35:26;102075.69;;;8.44;100.00
27334;BME280;14817;57.104;-2.094;2023-05-08T05:37:55;102081.88;;;8.45;100.00
27334;BME280;14817;57.104;-2.094;2023-05-08T05:40:22;102077.41;;;8.45;100.00
27334;BME280;14817;57.104;-2.094;2023-05-08T05:42:48;102085.13;;;8.50;100.00
27334;BME280;14817;57.104;-2.094;2023-05-08T05:45:17;102073.59;;;8.49;100.00
27334;BME280;14817;57.104;-2.094;2023-05-08T05:47:45;102076.78;;;8.54;100.00
27334;BME280;14817;57.104;-2.094;2023-05-08T05:50:17;102077.25;;;8.61;100.00
27334;BME280;14817;57.104;-2.094;2023-05-08T05:52:45;102066.16;;;8.67;100.00
27334;BME280;14817;57.104;-2.094;2023-05-08T05:55:12;102068.63;;;8.70;100.00
27334;BME280;14817;57.104;-2.094;2023-05-08T05:57:39;102049.28;;;8.67;100.00
27334;BME280;14817;57.104;-2.094;2023-05-08T06:00:06;102056.97;;;8.71;100.00
27334;BME280;14817;57.104;-2.094;2023-05-08T06:02:39;102047.25;;;8.70;100.00
27334;BME280;14817;57.104;-2.094;2023-05-08T06:05:13;102048.31;;;8.68;100.00
27334;BME280;14817;57.104;-2.094;2023-05-08T06:07:41;102049.91;;;8.70;100.00
27334;BME280;14817;57.104;-2.094;2023-05-08T06:10:08;102060.00;;;8.79;100.00
27334;BME280;14817;57.104;-2.094;2023-05-08T06:12:36;102059.16;;;8.79;100.00
27334;BME280;14817;57.104;-2.094;2023-05-08T06:15:04;102053.69;;;8.81;100.00
27334;BME280;14817;57.104;-2.094;2023-05-08T06:17:31;102053.50;;;8.84;100.00
27334;BME280;14817;57.104;-2.094;2023-05-08T06:19:58;102032.88;;;8.86;100.00
27334;BME280;14817;57.104;-2.094;2023-05-08T06:22:27;102038.84;;;8.89;100.00
27334;BME280;14817;57.104;-2.094;2023-05-08T06:24:54;102030.97;;;8.88;100.00
27334;BME280;14817;57.104;-2.094;2023-05-08T06:27:22;102025.16;;;8.94;100.00
27334;BME280;14817;57.104;-2.094;2023-05-08T06:29:50;102019.63;;;8.97;100.00
27334;BME280;14817;57.104;-2.094;2023-05-08T06:32:19;102015.78;;;9.01;100.00
27334;BME280;14817;57.104;-2.094;2023-05-08T06:34:47;102015.56;;;9.04;100.00
27334;BME280;14817;57.104;-2.094;2023-05-08T06:37:13;102005.09;;;9.01;100.00
27334;BME280;14817;57.104;-2.094;2023-05-08T06:39:40;101997.53;;;9.08;100.00
27334;BME280;14817;57.104;-2.094;2023-05-08T06:42:07;101983.09;;;9.10;100.00
27334;BME280;14817;57.104;-2.094;2023-05-08T06:44:37;101969.41;;;9.15;100.00
27334;BME280;14817;57.104;-2.094;2023-05-08T06:47:04;101962.13;;;9.17;100.00
27334;BME280;14817;57.104;-2.094;2023-05-08T06:49:31;101944.16;;;9.19;100.00
27334;BME280;14817;57.104;-2.094;2023-05-08T06:51:58;101920.94;;;9.19;100.00
27334;BME280;14817;57.104;-2.094;2023-05-08T06:54:24;101887.09;;;9.20;100.00
27334;BME280;14817;57.104;-2.094;2023-05-08T06:56:52;101871.66;;;9.24;100.00
27334;BME280;14817;57.104;-2.094;2023-05-08T06:59:20;101844.47;;;9.30;100.00
27334;BME280;14817;57.104;-2.094;2023-05-08T07:01:49;101825.22;;;9.37;100.00
27334;BME280;14817;57.104;-2.094;2023-05-08T07:04:16;101801.50;;;9.33;100.00
27334;BME280;14817;57.104;-2.094;2023-05-08T07:06:43;101764.69;;;9.36;100.00
27334;BME280;14817;57.104;-2.094;2023-05-08T07:09:10;101733.97;;;9.42;100.00
27334;BME280;14817;57.104;-2.094;2023-05-08T07:11:39;101704.56;;;9.42;100.00
27334;BME280;14817;57.104;-2.094;2023-05-08T07:14:06;101717.53;;;9.35;100.00
27334;BME280;14817;57.104;-2.094;2023-05-08T07:16:33;101690.09;;;9.45;100.00
27334;BME280;14817;57.104;-2.094;2023-05-08T07:19:01;101677.72;;;9.44;100.00
27334;BME280;14817;57.104;-2.094;2023-05-08T07:21:27;101662.78;;;9.52;100.00
27334;BME280;14817;57.104;-2.094;2023-05-08T07:23:55;101623.53;;;9.53;100.00
27334;BME280;14817;57.104;-2.094;2023-05-08T07:26:22;101616.13;;;9.56;100.00
27334;BME280;14817;57.104;-2.094;2023-05-08T07:28:49;101590.34;;;9.55;100.00
27334;BME280;14817;57.104;-2.094;2023-05-08T07:31:16;101567.00;;;9.46;100.00
27334;BME280;14817;57.104;-2.094;2023-05-08T07:33:43;101550.47;;;9.52;100.00
27334;BME280;14817;57.104;-2.094;2023-05-08T07:36:12;101527.00;;;9.45;100.00
27334;BME280;14817;57.104;-2.094;2023-05-08T07:38:39;101541.47;;;9.53;100.00
27334;BME280;14817;57.104;-2.094;2023-05-08T07:41:05;101509.13;;;9.45;100.00
27334;BME280;14817;57.104;-2.094;2023-05-08T07:43:33;101492.88;;;9.48;100.00
27334;BME280;14817;57.104;-2.094;2023-05-08T07:46:00;101493.34;;;9.53;100.00
27334;BME280;14817;57.104;-2.094;2023-05-08T07:48:26;101530.41;;;9.58;100.00
27334;BME280;14817;57.104;-2.094;2023-05-08T07:50:53;101500.16;;;9.46;100.00
27334;BME280;14817;57.104;-2.094;2023-05-08T07:53:20;101489.94;;;9.51;100.00
27334;BME280;14817;57.104;-2.094;2023-05-08T07:55:47;101487.75;;;9.56;100.00
27334;BME280;14817;57.104;-2.094;2023-05-08T07:58:13;101473.66;;;9.54;100.00
27334;BME280;14817;57.104;-2.094;2023-05-08T08:00:40;101460.53;;;9.63;100.00
27334;BME280;14817;57.104;-2.094;2023-05-08T08:03:07;101481.69;;;9.54;100.00
27334;BME280;14817;57.104;-2.094;2023-05-08T08:05:34;101470.00;;;9.55;100.00
27334;BME280;14817;57.104;-2.094;2023-05-08T08:08:00;101464.28;;;9.60;100.00
27334;BME280;14817;57.104;-2.094;2023-05-08T08:10:29;101444.81;;;9.58;100.00
27334;BME280;14817;57.104;-2.094;2023-05-08T08:12:56;101438.25;;;9.62;100.00
27334;BME280;14817;57.104;-2.094;2023-05-08T08:15:23;101424.53;;;9.55;100.00
27334;BME280;14817;57.104;-2.094;2023-05-08T08:17:50;101433.06;;;9.60;100.00
27334;BME280;14817;57.104;-2.094;2023-05-08T08:20:17;101433.19;;;9.59;100.00
27334;BME280;14817;57.104;-2.094;2023-05-08T08:22:44;101427.34;;;9.54;100.00
27334;BME280;14817;57.104;-2.094;2023-05-08T08:25:10;101420.19;;;9.54;100.00
27334;BME280;14817;57.104;-2.094;2023-05-08T08:27:38;101426.50;;;9.65;100.00
27334;BME280;14817;57.104;-2.094;2023-05-08T08:30:05;101433.28;;;9.57;100.00
27334;BME280;14817;57.104;-2.094;2023-05-08T08:32:44;101446.16;;;9.64;100.00
27334;BME280;14817;57.104;-2.094;2023-05-08T08:35:11;101454.44;;;9.72;100.00
27334;BME280;14817;57.104;-2.094;2023-05-08T08:37:38;101467.19;;;9.68;100.00
27334;BME280;14817;57.104;-2.094;2023-05-08T08:40:06;101477.78;;;9.70;100.00
27334;BME280;14817;57.104;-2.094;2023-05-08T08:42:33;101482.28;;;9.69;100.00
27334;BME280;14817;57.104;-2.094;2023-05-08T08:45:01;101486.56;;;9.60;100.00
27334;BME280;14817;57.104;-2.094;2023-05-08T08:47:34;101494.09;;;9.67;100.00
27334;BME280;14817;57.104;-2.094;2023-05-08T08:50:05;101494.09;;;9.67;100.00
27334;BME280;14817;57.104;-2.094;2023-05-08T08:52:56;101495.66;;;9.69;100.00
27334;BME280;14817;57.104;-2.094;2023-05-08T08:55:26;101501.13;;;9.68;100.00
27334;BME280;14817;57.104;-2.094;2023-05-08T09:00:44;101533.69;;;9.73;100.00
27334;BME280;14817;57.104;-2.094;2023-05-08T09:03:13;101535.78;;;9.69;100.00
27334;BME280;14817;57.104;-2.094;2023-05-08T09:05:42;101552.41;;;9.73;100.00
27334;BME280;14817;57.104;-2.094;2023-05-08T09:08:11;101544.41;;;9.61;100.00
27334;BME280;14817;57.104;-2.094;2023-05-08T09:10:38;101545.50;;;9.59;100.00
27334;BME280;14817;57.104;-2.094;2023-05-08T09:13:05;101542.56;;;9.51;100.00
27334;BME280;14817;57.104;-2.094;2023-05-08T09:15:32;101544.88;;;9.55;100.00
27334;BME280;14817;57.104;-2.094;2023-05-08T09:18:00;101542.72;;;9.60;100.00
27334;BME280;14817;57.104;-2.094;2023-05-08T09:20:30;101548.06;;;9.60;100.00
27334;BME280;14817;57.104;-2.094;2023-05-08T09:23:00;101536.38;;;9.50;100.00
27334;BME280;14817;57.104;-2.094;2023-05-08T09:25:43;101529.94;;;9.42;100.00
27334;BME280;14817;57.104;-2.094;2023-05-08T09:28:21;101529.06;;;9.30;100.00
27334;BME280;14817;57.104;-2.094;2023-05-08T09:33:17;101558.59;;;9.28;100.00
27334;BME280;14817;57.104;-2.094;2023-05-08T09:35:45;101570.34;;;9.26;100.00
27334;BME280;14817;57.104;-2.094;2023-05-08T09:38:34;101538.06;;;9.29;100.00
27334;BME280;14817;57.104;-2.094;2023-05-08T09:41:08;101551.53;;;9.27;100.00
27334;BME280;14817;57.104;-2.094;2023-05-08T09:43:40;101552.50;;;9.26;100.00
27334;BME280;14817;57.104;-2.094;2023-05-08T09:46:22;101557.13;;;9.24;100.00
27334;BME280;14817;57.104;-2.094;2023-05-08T09:48:51;101549.22;;;9.23;100.00
27334;BME280;14817;57.104;-2.094;2023-05-08T09:51:19;101553.56;;;9.24;100.00
27334;BME280;14817;57.104;-2.094;2023-05-08T09:53:49;101554.09;;;9.29;100.00
27334;BME280;14817;57.104;-2.094;2023-05-08T09:56:37;101554.44;;;9.24;100.00
27334;BME280;14817;57.104;-2.094;2023-05-08T09:59:22;101564.53;;;9.32;100.00
27334;BME280;14817;57.104;-2.094;2023-05-08T10:01:49;101571.34;;;9.36;100.00
27334;BME280;14817;57.104;-2.094;2023-05-08T10:04:17;101586.66;;;9.45;100.00
27334;BME280;14817;57.104;-2.094;2023-05-08T10:06:56;101584.59;;;9.37;100.00
27334;BME280;14817;57.104;-2.094;2023-05-08T10:09:23;101564.56;;;9.43;100.00
27334;BME280;14817;57.104;-2.094;2023-05-08T10:11:53;101584.59;;;9.37;100.00
27334;BME280;14817;57.104;-2.094;2023-05-08T10:14:21;101604.91;;;9.40;100.00
27334;BME280;14817;57.104;-2.094;2023-05-08T10:16:51;101609.03;;;9.33;100.00
27334;BME280;14817;57.104;-2.094;2023-05-08T10:19:24;101622.66;;;9.41;100.00
27334;BME280;14817;57.104;-2.094;2023-05-08T10:21:54;101631.63;;;9.40;100.00
27334;BME280;14817;57.104;-2.094;2023-05-08T10:24:32;101653.66;;;9.44;100.00
27334;BME280;14817;57.104;-2.094;2023-05-08T10:30:09;101682.94;;;9.45;100.00
27334;BME280;14817;57.104;-2.094;2023-05-08T10:32:44;101696.81;;;9.50;100.00
27334;BME280;14817;57.104;-2.094;2023-05-08T10:35:13;101699.13;;;9.55;100.00
27334;BME280;14817;57.104;-2.094;2023-05-08T10:37:40;101705.94;;;9.48;100.00
27334;BME280;14817;57.104;-2.094;2023-05-08T10:40:08;101703.84;;;9.51;100.00
27334;BME280;14817;57.104;-2.094;2023-05-08T10:42:36;101701.56;;;9.58;100.00
27334;BME280;14817;57.104;-2.094;2023-05-08T10:45:05;101697.44;;;9.54;100.00
27334;BME280;14817;57.104;-2.094;2023-05-08T10:47:54;101697.19;;;9.57;100.00
27334;BME280;14817;57.104;-2.094;2023-05-08T10:53:30;101687.13;;;9.60;100.00
27334;BME280;14817;57.104;-2.094;2023-05-08T10:56:02;101690.91;;;9.69;100.00
27334;BME280;14817;57.104;-2.094;2023-05-08T10:58:33;101678.13;;;9.61;100.00
27334;BME280;14817;57.104;-2.094;2023-05-08T11:03:39;101674.50;;;9.63;100.00
27334;BME280;14817;57.104;-2.094;2023-05-08T11:06:08;101660.22;;;9.51;100.00
27334;BME280;14817;57.104;-2.094;2023-05-08T11:08:50;101655.97;;;9.48;100.00
27334;BME280;14817;57.104;-2.094;2023-05-08T11:11:36;101658.66;;;9.59;100.00
27334;BME280;14817;57.104;-2.094;2023-05-08T11:17:02;101642.13;;;9.43;100.00
27334;BME280;14817;57.104;-2.094;2023-05-08T11:19:29;101643.31;;;9.39;100.00
27334;BME280;14817;57.104;-2.094;2023-05-08T11:22:27;101655.41;;;9.56;100.00
27334;BME280;14817;57.104;-2.094;2023-05-08T11:25:05;101644.53;;;9.46;100.00
27334;BME280;14817;57.104;-2.094;2023-05-08T11:38:16;101638.47;;;9.44;100.00
27334;BME280;14817;57.104;-2.094;2023-05-08T11:45:59;101639.56;;;9.42;100.00
27334;BME280;14817;57.104;-2.094;2023-05-08T11:48:27;101645.66;;;9.55;100.00
27334;BME280;14817;57.104;-2.094;2023-05-08T11:50:54;101640.19;;;9.56;100.00
27334;BME280;14817;57.104;-2.094;2023-05-08T11:53:21;101638.72;;;9.52;100.00
27334;BME280;14817;57.104;-2.094;2023-05-08T11:55:50;101628.97;;;9.51;100.00
27334;BME280;14817;57.104;-2.094;2023-05-08T11:58:17;101639.72;;;9.63;100.00
27334;BME280;14817;57.104;-2.094;2023-05-08T12:00:45;101625.25;;;9.54;100.00
27334;BME280;14817;57.104;-2.094;2023-05-08T12:03:13;101626.56;;;9.59;100.00
27334;BME280;14817;57.104;-2.094;2023-05-08T12:05:41;101614.19;;;9.58;100.00
27334;BME280;14817;57.104;-2.094;2023-05-08T12:08:09;101620.38;;;9.70;100.00
27334;BME280;14817;57.104;-2.094;2023-05-08T12:15:47;101611.03;;;9.76;100.00
27334;BME280;14817;57.104;-2.094;2023-05-08T12:18:15;101602.78;;;9.90;100.00
27334;BME280;14817;57.104;-2.094;2023-05-08T12:20:42;101594.63;;;9.92;100.00
27334;BME280;14817;57.104;-2.094;2023-05-08T12:23:09;101583.81;;;9.93;100.00
27334;BME280;14817;57.104;-2.094;2023-05-08T12:25:37;101585.25;;;9.97;100.00
27334;BME280;14817;57.104;-2.094;2023-05-08T12:28:08;101566.06;;;9.92;100.00
27334;BME280;14817;57.104;-2.094;2023-05-08T12:30:37;101559.47;;;9.85;100.00
27334;BME280;14817;57.104;-2.094;2023-05-08T12:33:04;101553.66;;;9.80;100.00
27334;BME280;14817;57.104;-2.094;2023-05-08T12:35:32;101553.53;;;9.81;100.00
27334;BME280;14817;57.104;-2.094;2023-05-08T12:38:03;101535.88;;;9.79;100.00
27334;BME280;14817;57.104;-2.094;2023-05-08T12:40:33;101527.63;;;9.82;100.00
27334;BME280;14817;57.104;-2.094;2023-05-08T12:43:02;101523.97;;;9.83;100.00
27334;BME280;14817;57.104;-2.094;2023-05-08T12:45:30;101519.34;;;9.85;100.00
27334;BME280;14817;57.104;-2.094;2023-05-08T12:48:04;101516.56;;;9.87;100.00
27334;BME280;14817;57.104;-2.094;2023-05-08T12:50:39;101516.56;;;9.75;100.00
27334;BME280;14817;57.104;-2.094;2023-05-08T12:53:08;101520.19;;;9.86;100.00
27334;BME280;14817;57.104;-2.094;2023-05-08T12:55:38;101516.69;;;9.74;100.00
27334;BME280;14817;57.104;-2.094;2023-05-08T12:58:10;101518.38;;;9.86;100.00
27334;BME280;14817;57.104;-2.094;2023-05-08T13:00:46;101501.22;;;9.89;100.00
27334;BME280;14817;57.104;-2.094;2023-05-08T13:03:26;101506.94;;;9.84;100.00
27334;BME280;14817;57.104;-2.094;2023-05-08T13:05:56;101509.97;;;9.91;100.00
27334;BME280;14817;57.104;-2.094;2023-05-08T13:08:31;101515.72;;;9.86;100.00
27334;BME280;14817;57.104;-2.094;2023-05-08T13:10:59;101509.88;;;9.92;100.00
27334;BME280;14817;57.104;-2.094;2023-05-08T13:13:29;101510.78;;;10.02;100.00
27334;BME280;14817;57.104;-2.094;2023-05-08T13:15:57;101510.91;;;10.12;100.00
27334;BME280;14817;57.104;-2.094;2023-05-08T13:18:27;101514.16;;;10.27;100.00
27334;BME280;14817;57.104;-2.094;2023-05-08T13:20:55;101503.69;;;10.24;100.00
27334;BME280;14817;57.104;-2.094;2023-05-08T13:23:22;101500.53;;;10.30;100.00
27334;BME280;14817;57.104;-2.094;2023-05-08T13:25:49;101487.16;;;10.30;100.00
27334;BME280;14817;57.104;-2.094;2023-05-08T13:28:16;101479.84;;;10.65;100.00
27334;BME280;14817;57.104;-2.094;2023-05-08T13:30:44;101450.69;;;10.50;100.00
27334;BME280;14817;57.104;-2.094;2023-05-08T13:33:11;101417.31;;;10.54;100.00
27334;BME280;14817;57.104;-2.094;2023-05-08T13:35:37;101408.09;;;10.68;100.00
27334;BME280;14817;57.104;-2.094;2023-05-08T13:38:04;101431.56;;;10.97;100.00
27334;BME280;14817;57.104;-2.094;2023-05-08T13:40:31;101422.97;;;11.34;100.00
27334;BME280;14817;57.104;-2.094;2023-05-08T13:42:58;101402.94;;;11.38;100.00
27334;BME280;14817;57.104;-2.094;2023-05-08T13:45:25;101352.66;;;11.20;100.00
27334;BME280;14817;57.104;-2.094;2023-05-08T13:47:52;101318.34;;;10.83;100.00
27334;BME280;14817;57.104;-2.094;2023-05-08T13:50:19;101289.63;;;10.95;100.00
27334;BME280;14817;57.104;-2.094;2023-05-08T13:52:47;101267.84;;;10.79;100.00